sensor_id;sensor_type;location;lat;lon;timestamp;P1;durP1;ratioP1;P2;durP2;ratioP2
60436;SDS011;46289;51.992;4.498;2023-08-06T00:00:34;13.27;;;6.63;;
60436;SDS011;46289;51.992;4.498;2023-08-06T00:02:37;13.73;;;7.00;;
60436;SDS011;46289;51.992;4.498;2023-08-06T00:04:42;15.65;;;6.88;;
60436;SDS011;46289;51.992;4.498;2023-08-06T00:06:50;13.73;;;7.70;;
60436;SDS011;46289;51.992;4.498;2023-08-06T00:08:55;15.10;;;7.55;;
60436;SDS011;46289;51.992;4.498;2023-08-06T00:11:00;14.43;;;7.05;;
60436;SDS011;46289;51.992;4.498;2023-08-06T00:13:05;12.90;;;7.05;;
60436;SDS011;46289;51.992;4.498;2023-08-06T00:15:10;14.43;;;6.78;;
60436;SDS011;46289;51.992;4.498;2023-08-06T00:17:16;14.82;;;7.35;;
60436;SDS011;46289;51.992;4.498;2023-08-06T00:19:21;13.80;;;7.63;;
60436;SDS011;46289;51.992;4.498;2023-08-06T00:21:26;12.98;;;6.65;;
60436;SDS011;46289;51.992;4.498;2023-08-06T00:23:34;13.68;;;7.25;;
60436;SDS011;46289;51.992;4.498;2023-08-06T00:25:39;15.23;;;7.35;;
60436;SDS011;46289;51.992;4.498;2023-08-06T00:27:44;14.90;;;8.25;;
60436;SDS011;46289;51.992;4.498;2023-08-06T00:29:46;13.07;;;7.38;;
60436;SDS011;46289;51.992;4.498;2023-08-06T00:31:51;13.85;;;7.65;;
60436;SDS011;46289;51.992;4.498;2023-08-06T00:33:56;16.50;;;7.63;;
60436;SDS011;46289;51.992;4.498;2023-08-06T00:36:02;13.45;;;7.00;;
60436;SDS011;46289;51.992;4.498;2023-08-06T00:38:07;14.73;;;7.68;;
60436;SDS011;46289;51.992;4.498;2023-08-06T00:40:14;12.75;;;7.45;;
60436;SDS011;46289;51.992;4.498;2023-08-06T00:42:19;15.57;;;7.97;;
60436;SDS011;46289;51.992;4.498;2023-08-06T00:44:25;14.00;;;7.25;;
60436;SDS011;46289;51.992;4.498;2023-08-06T00:46:30;14.60;;;7.38;;
60436;SDS011;46289;51.992;4.498;2023-08-06T00:48:37;12.02;;;6.93;;
60436;SDS011;46289;51.992;4.498;2023-08-06T00:50:42;12.57;;;7.70;;
60436;SDS011;46289;51.992;4.498;2023-08-06T00:52:47;14.93;;;7.68;;
60436;SDS011;46289;51.992;4.498;2023-08-06T00:54:52;15.55;;;7.35;;
60436;SDS011;46289;51.992;4.498;2023-08-06T00:57:00;15.07;;;7.75;;
60436;SDS011;46289;51.992;4.498;2023-08-06T00:59:05;13.35;;;8.23;;
60436;SDS011;46289;51.992;4.498;2023-08-06T01:01:10;12.63;;;6.95;;
60436;SDS011;46289;51.992;4.498;2023-08-06T01:03:15;15.18;;;7.30;;
60436;SDS011;46289;51.992;4.498;2023-08-06T01:05:20;12.38;;;6.90;;
60436;SDS011;46289;51.992;4.498;2023-08-06T01:07:32;12.32;;;6.78;;
60436;SDS011;46289;51.992;4.498;2023-08-06T01:09:50;13.02;;;6.75;;
60436;SDS011;46289;51.992;4.498;2023-08-06T01:12:06;12.75;;;7.10;;
60436;SDS011;46289;51.992;4.498;2023-08-06T01:14:21;14.32;;;7.03;;
60436;SDS011;46289;51.992;4.498;2023-08-06T01:16:30;15.52;;;8.10;;
60436;SDS011;46289;51.992;4.498;2023-08-06T01:18:37;13.05;;;6.82;;
60436;SDS011;46289;51.992;4.498;2023-08-06T01:20:46;15.65;;;7.10;;
60436;SDS011;46289;51.992;4.498;2023-08-06T01:22:48;14.88;;;7.13;;
60436;SDS011;46289;51.992;4.498;2023-08-06T01:24:53;13.73;;;7.25;;
60436;SDS011;46289;51.992;4.498;2023-08-06T01:27:03;13.55;;;7.38;;
60436;SDS011;46289;51.992;4.498;2023-08-06T01:29:14;15.45;;;8.02;;
60436;SDS011;46289;51.992;4.498;2023-08-06T01:31:24;15.75;;;7.65;;
60436;SDS011;46289;51.992;4.498;2023-08-06T01:33:32;12.85;;;6.93;;
60436;SDS011;46289;51.992;4.498;2023-08-06T01:35:39;15.50;;;7.95;;
60436;SDS011;46289;51.992;4.498;2023-08-06T01:37:49;13.48;;;7.57;;
60436;SDS011;46289;51.992;4.498;2023-08-06T01:39:54;15.65;;;8.20;;
60436;SDS011;46289;51.992;4.498;2023-08-06T01:41:59;13.30;;;7.88;;
60436;SDS011;46289;51.992;4.498;2023-08-06T01:44:05;15.90;;;7.70;;
60436;SDS011;46289;51.992;4.498;2023-08-06T01:46:10;15.32;;;7.63;;
60436;SDS011;46289;51.992;4.498;2023-08-06T01:48:15;13.75;;;7.80;;
60436;SDS011;46289;51.992;4.498;2023-08-06T01:50:20;14.57;;;7.05;;
60436;SDS011;46289;51.992;4.498;2023-08-06T01:52:25;13.98;;;7.63;;
60436;SDS011;46289;51.992;4.498;2023-08-06T01:54:35;14.48;;;7.63;;
60436;SDS011;46289;51.992;4.498;2023-08-06T01:56:40;12.57;;;6.90;;
60436;SDS011;46289;51.992;4.498;2023-08-06T01:58:46;15.00;;;7.72;;
60436;SDS011;46289;51.992;4.498;2023-08-06T02:00:51;12.63;;;7.60;;
60436;SDS011;46289;51.992;4.498;2023-08-06T02:02:56;15.13;;;8.45;;
60436;SDS011;46289;51.992;4.498;2023-08-06T02:05:01;16.35;;;8.13;;
60436;SDS011;46289;51.992;4.498;2023-08-06T02:07:05;14.73;;;8.27;;
60436;SDS011;46289;51.992;4.498;2023-08-06T02:09:11;14.55;;;7.90;;
60436;SDS011;46289;51.992;4.498;2023-08-06T02:11:18;17.77;;;8.05;;
60436;SDS011;46289;51.992;4.498;2023-08-06T02:13:23;13.55;;;7.63;;
60436;SDS011;46289;51.992;4.498;2023-08-06T02:15:26;14.88;;;8.27;;
60436;SDS011;46289;51.992;4.498;2023-08-06T02:17:31;18.33;;;8.20;;
60436;SDS011;46289;51.992;4.498;2023-08-06T02:19:33;14.68;;;7.95;;
60436;SDS011;46289;51.992;4.498;2023-08-06T02:21:38;17.27;;;9.45;;
60436;SDS011;46289;51.992;4.498;2023-08-06T02:23:45;15.50;;;8.45;;
60436;SDS011;46289;51.992;4.498;2023-08-06T02:25:56;14.02;;;7.45;;
60436;SDS011;46289;51.992;4.498;2023-08-06T02:28:04;17.13;;;8.25;;
60436;SDS011;46289;51.992;4.498;2023-08-06T02:30:09;13.43;;;7.60;;
60436;SDS011;46289;51.992;4.498;2023-08-06T02:32:14;12.52;;;6.90;;
60436;SDS011;46289;51.992;4.498;2023-08-06T02:34:19;15.30;;;7.57;;
60436;SDS011;46289;51.992;4.498;2023-08-06T02:36:24;12.77;;;6.47;;
60436;SDS011;46289;51.992;4.498;2023-08-06T02:38:31;12.10;;;6.47;;
60436;SDS011;46289;51.992;4.498;2023-08-06T02:40:33;12.38;;;6.35;;
60436;SDS011;46289;51.992;4.498;2023-08-06T02:42:39;9.85;;;4.93;;
60436;SDS011;46289;51.992;4.498;2023-08-06T02:44:47;11.10;;;5.32;;
60436;SDS011;46289;51.992;4.498;2023-08-06T02:46:49;9.75;;;4.65;;
60436;SDS011;46289;51.992;4.498;2023-08-06T02:48:54;8.73;;;4.03;;
60436;SDS011;46289;51.992;4.498;2023-08-06T02:50:59;9.15;;;4.22;;
60436;SDS011;46289;51.992;4.498;2023-08-06T02:53:05;7.03;;;3.28;;
60436;SDS011;46289;51.992;4.498;2023-08-06T02:55:08;7.13;;;3.95;;
60436;SDS011;46289;51.992;4.498;2023-08-06T02:57:13;8.52;;;3.80;;
60436;SDS011;46289;51.992;4.498;2023-08-06T02:59:18;6.18;;;3.33;;
60436;SDS011;46289;51.992;4.498;2023-08-06T03:01:23;8.10;;;3.72;;
60436;SDS011;46289;51.992;4.498;2023-08-06T03:03:29;3.53;;;1.83;;
60436;SDS011;46289;51.992;4.498;2023-08-06T03:05:31;4.15;;;2.30;;
60436;SDS011;46289;51.992;4.498;2023-08-06T03:07:36;1.67;;;1.17;;
60436;SDS011;46289;51.992;4.498;2023-08-06T03:09:41;2.45;;;1.50;;
60436;SDS011;46289;51.992;4.498;2023-08-06T03:11:46;2.78;;;1.67;;
60436;SDS011;46289;51.992;4.498;2023-08-06T03:13:51;2.58;;;1.42;;
60436;SDS011;46289;51.992;4.498;2023-08-06T03:15:57;3.10;;;1.27;;
60436;SDS011;46289;51.992;4.498;2023-08-06T03:18:06;2.00;;;1.30;;
60436;SDS011;46289;51.992;4.498;2023-08-06T03:20:11;3.40;;;1.98;;
60436;SDS011;46289;51.992;4.498;2023-08-06T03:22:16;3.08;;;1.98;;
60436;SDS011;46289;51.992;4.498;2023-08-06T03:24:21;2.92;;;1.73;;
60436;SDS011;46289;51.992;4.498;2023-08-06T03:26:27;4.30;;;2.20;;
60436;SDS011;46289;51.992;4.498;2023-08-06T03:28:32;3.08;;;2.13;;
60436;SDS011;46289;51.992;4.498;2023-08-06T03:30:37;4.97;;;2.75;;
60436;SDS011;46289;51.992;4.498;2023-08-06T03:32:40;5.70;;;2.60;;
60436;SDS011;46289;51.992;4.498;2023-08-06T03:34:48;8.18;;;3.40;;
60436;SDS011;46289;51.992;4.498;2023-08-06T03:36:53;8.02;;;3.92;;
60436;SDS011;46289;51.992;4.498;2023-08-06T03:38:59;7.18;;;4.13;;
60436;SDS011;46289;51.992;4.498;2023-08-06T03:41:01;9.70;;;5.07;;
60436;SDS011;46289;51.992;4.498;2023-08-06T03:43:06;12.45;;;5.60;;
60436;SDS011;46289;51.992;4.498;2023-08-06T03:45:11;13.20;;;6.10;;
60436;SDS011;46289;51.992;4.498;2023-08-06T03:47:16;10.35;;;5.43;;
60436;SDS011;46289;51.992;4.498;2023-08-06T03:49:21;12.32;;;5.78;;
60436;SDS011;46289;51.992;4.498;2023-08-06T03:51:29;15.57;;;6.57;;
60436;SDS011;46289;51.992;4.498;2023-08-06T03:53:34;13.05;;;7.20;;
60436;SDS011;46289;51.992;4.498;2023-08-06T03:55:39;13.32;;;6.32;;
60436;SDS011;46289;51.992;4.498;2023-08-06T03:57:44;14.98;;;7.40;;
60436;SDS011;46289;51.992;4.498;2023-08-06T03:59:49;16.63;;;7.57;;
60436;SDS011;46289;51.992;4.498;2023-08-06T04:01:56;13.32;;;6.63;;
60436;SDS011;46289;51.992;4.498;2023-08-06T04:04:01;11.40;;;5.75;;
60436;SDS011;46289;51.992;4.498;2023-08-06T04:06:06;9.93;;;4.85;;
60436;SDS011;46289;51.992;4.498;2023-08-06T04:08:14;11.20;;;4.80;;
60436;SDS011;46289;51.992;4.498;2023-08-06T04:10:19;9.48;;;4.38;;
60436;SDS011;46289;51.992;4.498;2023-08-06T04:12:24;9.02;;;3.88;;
60436;SDS011;46289;51.992;4.498;2023-08-06T04:16:32;8.55;;;4.72;;
60436;SDS011;46289;51.992;4.498;2023-08-06T04:18:37;8.63;;;3.80;;
60436;SDS011;46289;51.992;4.498;2023-08-06T04:20:43;9.73;;;3.97;;
60436;SDS011;46289;51.992;4.498;2023-08-06T04:22:53;7.32;;;3.72;;
60436;SDS011;46289;51.992;4.498;2023-08-06T04:25:04;8.45;;;4.15;;
60436;SDS011;46289;51.992;4.498;2023-08-06T04:27:11;7.32;;;4.00;;
60436;SDS011;46289;51.992;4.498;2023-08-06T04:29:17;8.07;;;3.88;;
60436;SDS011;46289;51.992;4.498;2023-08-06T04:31:22;7.40;;;3.90;;
60436;SDS011;46289;51.992;4.498;2023-08-06T04:33:27;10.52;;;3.95;;
60436;SDS011;46289;51.992;4.498;2023-08-06T04:35:30;8.15;;;3.95;;
60436;SDS011;46289;51.992;4.498;2023-08-06T04:37:35;8.02;;;4.07;;
60436;SDS011;46289;51.992;4.498;2023-08-06T04:39:38;10.63;;;4.93;;
60436;SDS011;46289;51.992;4.498;2023-08-06T04:41:46;9.25;;;3.97;;
60436;SDS011;46289;51.992;4.498;2023-08-06T04:43:52;9.27;;;3.95;;
60436;SDS011;46289;51.992;4.498;2023-08-06T04:45:57;8.82;;;3.78;;
60436;SDS011;46289;51.992;4.498;2023-08-06T04:48:02;9.40;;;4.10;;
60436;SDS011;46289;51.992;4.498;2023-08-06T04:50:09;10.20;;;4.85;;
60436;SDS011;46289;51.992;4.498;2023-08-06T04:52:11;7.25;;;3.65;;
60436;SDS011;46289;51.992;4.498;2023-08-06T04:54:18;9.73;;;4.63;;
60436;SDS011;46289;51.992;4.498;2023-08-06T04:56:23;14.10;;;4.45;;
60436;SDS011;46289;51.992;4.498;2023-08-06T04:58:31;13.63;;;5.07;;
60436;SDS011;46289;51.992;4.498;2023-08-06T05:00:40;9.37;;;4.43;;
60436;SDS011;46289;51.992;4.498;2023-08-06T05:02:46;12.07;;;5.75;;
60436;SDS011;46289;51.992;4.498;2023-08-06T05:04:51;11.13;;;5.75;;
60436;SDS011;46289;51.992;4.498;2023-08-06T05:06:56;11.00;;;5.63;;
60436;SDS011;46289;51.992;4.498;2023-08-06T05:09:02;10.50;;;5.05;;
60436;SDS011;46289;51.992;4.498;2023-08-06T05:11:10;11.80;;;5.15;;
60436;SDS011;46289;51.992;4.498;2023-08-06T05:13:15;10.50;;;5.20;;
60436;SDS011;46289;51.992;4.498;2023-08-06T05:15:23;10.25;;;5.38;;
60436;SDS011;46289;51.992;4.498;2023-08-06T05:17:31;11.30;;;5.68;;
60436;SDS011;46289;51.992;4.498;2023-08-06T05:19:37;8.80;;;4.70;;
60436;SDS011;46289;51.992;4.498;2023-08-06T05:21:41;13.60;;;5.53;;
60436;SDS011;46289;51.992;4.498;2023-08-06T05:23:49;10.95;;;4.60;;
60436;SDS011;46289;51.992;4.498;2023-08-06T05:25:55;11.52;;;4.85;;
60436;SDS011;46289;51.992;4.498;2023-08-06T05:28:00;8.70;;;4.50;;
60436;SDS011;46289;51.992;4.498;2023-08-06T05:30:06;10.75;;;5.10;;
60436;SDS011;46289;51.992;4.498;2023-08-06T05:32:13;7.90;;;4.63;;
60436;SDS011;46289;51.992;4.498;2023-08-06T05:34:27;9.57;;;4.68;;
60436;SDS011;46289;51.992;4.498;2023-08-06T05:36:32;10.65;;;4.75;;
60436;SDS011;46289;51.992;4.498;2023-08-06T05:38:37;14.25;;;5.38;;
60436;SDS011;46289;51.992;4.498;2023-08-06T05:40:49;12.88;;;5.97;;
60436;SDS011;46289;51.992;4.498;2023-08-06T05:42:54;9.98;;;5.03;;
60436;SDS011;46289;51.992;4.498;2023-08-06T05:45:02;13.43;;;5.53;;
60436;SDS011;46289;51.992;4.498;2023-08-06T05:47:09;8.45;;;3.88;;
60436;SDS011;46289;51.992;4.498;2023-08-06T05:49:43;8.05;;;3.95;;
60436;SDS011;46289;51.992;4.498;2023-08-06T05:51:52;11.15;;;4.15;;
60436;SDS011;46289;51.992;4.498;2023-08-06T05:53:57;13.05;;;4.28;;
60436;SDS011;46289;51.992;4.498;2023-08-06T05:58:23;10.00;;;3.72;;
60436;SDS011;46289;51.992;4.498;2023-08-06T06:00:30;7.53;;;3.63;;
60436;SDS011;46289;51.992;4.498;2023-08-06T06:02:36;9.23;;;3.13;;
60436;SDS011;46289;51.992;4.498;2023-08-06T06:04:50;6.45;;;2.85;;
60436;SDS011;46289;51.992;4.498;2023-08-06T06:06:58;10.23;;;3.10;;
60436;SDS011;46289;51.992;4.498;2023-08-06T06:09:05;8.43;;;2.95;;
60436;SDS011;46289;51.992;4.498;2023-08-06T06:11:10;8.15;;;2.55;;
60436;SDS011;46289;51.992;4.498;2023-08-06T06:13:15;4.93;;;2.50;;
60436;SDS011;46289;51.992;4.498;2023-08-06T06:15:21;7.60;;;2.53;;
60436;SDS011;46289;51.992;4.498;2023-08-06T06:17:26;3.95;;;2.20;;
60436;SDS011;46289;51.992;4.498;2023-08-06T06:19:31;8.80;;;2.35;;
60436;SDS011;46289;51.992;4.498;2023-08-06T06:21:42;4.70;;;1.95;;
60436;SDS011;46289;51.992;4.498;2023-08-06T06:23:49;6.00;;;2.15;;
60436;SDS011;46289;51.992;4.498;2023-08-06T06:25:55;4.15;;;1.85;;
60436;SDS011;46289;51.992;4.498;2023-08-06T06:28:04;2.80;;;1.60;;
60436;SDS011;46289;51.992;4.498;2023-08-06T06:30:12;4.32;;;1.90;;
60436;SDS011;46289;51.992;4.498;2023-08-06T06:32:19;7.78;;;1.95;;
60436;SDS011;46289;51.992;4.498;2023-08-06T06:34:27;5.15;;;1.52;;
60436;SDS011;46289;51.992;4.498;2023-08-06T06:36:38;5.25;;;1.80;;
60436;SDS011;46289;51.992;4.498;2023-08-06T06:38:47;6.13;;;1.85;;
60436;SDS011;46289;51.992;4.498;2023-08-06T06:41:05;5.13;;;2.25;;
60436;SDS011;46289;51.992;4.498;2023-08-06T06:43:10;5.32;;;1.92;;
60436;SDS011;46289;51.992;4.498;2023-08-06T06:45:15;3.55;;;2.25;;
60436;SDS011;46289;51.992;4.498;2023-08-06T06:47:23;4.65;;;1.95;;
60436;SDS011;46289;51.992;4.498;2023-08-06T06:49:31;5.10;;;2.00;;
60436;SDS011;46289;51.992;4.498;2023-08-06T06:51:39;4.32;;;2.00;;
60436;SDS011;46289;51.992;4.498;2023-08-06T06:53:49;3.03;;;1.67;;
60436;SDS011;46289;51.992;4.498;2023-08-06T06:56:01;6.43;;;1.90;;
60436;SDS011;46289;51.992;4.498;2023-08-06T06:58:08;6.15;;;2.13;;
60436;SDS011;46289;51.992;4.498;2023-08-06T07:00:17;5.47;;;1.90;;
60436;SDS011;46289;51.992;4.498;2023-08-06T07:02:26;4.63;;;1.80;;
60436;SDS011;46289;51.992;4.498;2023-08-06T07:04:34;7.05;;;1.90;;
60436;SDS011;46289;51.992;4.498;2023-08-06T07:06:46;4.53;;;2.10;;
60436;SDS011;46289;51.992;4.498;2023-08-06T07:08:54;6.32;;;2.05;;
60436;SDS011;46289;51.992;4.498;2023-08-06T07:11:05;5.30;;;2.25;;
60436;SDS011;46289;51.992;4.498;2023-08-06T07:13:11;9.10;;;2.40;;
60436;SDS011;46289;51.992;4.498;2023-08-06T07:15:19;7.07;;;2.85;;
60436;SDS011;46289;51.992;4.498;2023-08-06T07:17:24;5.90;;;2.60;;
60436;SDS011;46289;51.992;4.498;2023-08-06T07:19:44;6.97;;;2.88;;
60436;SDS011;46289;51.992;4.498;2023-08-06T07:21:54;10.02;;;3.30;;
60436;SDS011;46289;51.992;4.498;2023-08-06T07:24:01;5.10;;;2.42;;
60436;SDS011;46289;51.992;4.498;2023-08-06T07:26:06;6.15;;;2.30;;
60436;SDS011;46289;51.992;4.498;2023-08-06T07:28:12;4.50;;;2.35;;
60436;SDS011;46289;51.992;4.498;2023-08-06T07:30:17;6.63;;;2.53;;
60436;SDS011;46289;51.992;4.498;2023-08-06T07:32:22;6.13;;;2.50;;
60436;SDS011;46289;51.992;4.498;2023-08-06T07:34:29;9.35;;;2.45;;
60436;SDS011;46289;51.992;4.498;2023-08-06T07:36:36;8.20;;;3.13;;
60436;SDS011;46289;51.992;4.498;2023-08-06T07:38:51;6.90;;;2.85;;
60436;SDS011;46289;51.992;4.498;2023-08-06T07:41:01;5.80;;;2.35;;
60436;SDS011;46289;51.992;4.498;2023-08-06T07:43:07;7.32;;;2.50;;
60436;SDS011;46289;51.992;4.498;2023-08-06T07:45:12;5.30;;;2.58;;
60436;SDS011;46289;51.992;4.498;2023-08-06T07:47:21;7.03;;;2.60;;
60436;SDS011;46289;51.992;4.498;2023-08-06T07:49:26;5.15;;;2.33;;
60436;SDS011;46289;51.992;4.498;2023-08-06T07:51:31;5.40;;;2.58;;
60436;SDS011;46289;51.992;4.498;2023-08-06T07:53:37;6.75;;;2.10;;
60436;SDS011;46289;51.992;4.498;2023-08-06T07:55:47;5.70;;;2.10;;
60436;SDS011;46289;51.992;4.498;2023-08-06T07:57:55;4.35;;;1.90;;
60436;SDS011;46289;51.992;4.498;2023-08-06T08:00:01;4.90;;;2.08;;
60436;SDS011;46289;51.992;4.498;2023-08-06T08:02:05;5.25;;;2.33;;
60436;SDS011;46289;51.992;4.498;2023-08-06T08:04:10;6.40;;;2.65;;
60436;SDS011;46289;51.992;4.498;2023-08-06T08:06:15;4.53;;;2.10;;
60436;SDS011;46289;51.992;4.498;2023-08-06T08:08:20;5.40;;;2.05;;
60436;SDS011;46289;51.992;4.498;2023-08-06T08:10:25;5.93;;;2.33;;
60436;SDS011;46289;51.992;4.498;2023-08-06T08:12:33;6.65;;;2.30;;
60436;SDS011;46289;51.992;4.498;2023-08-06T08:14:39;6.90;;;2.67;;
60436;SDS011;46289;51.992;4.498;2023-08-06T08:16:48;6.65;;;2.15;;
60436;SDS011;46289;51.992;4.498;2023-08-06T08:18:53;6.97;;;2.28;;
60436;SDS011;46289;51.992;4.498;2023-08-06T08:20:58;5.07;;;2.00;;
60436;SDS011;46289;51.992;4.498;2023-08-06T08:23:06;8.52;;;2.70;;
60436;SDS011;46289;51.992;4.498;2023-08-06T08:25:11;6.15;;;2.22;;
60436;SDS011;46289;51.992;4.498;2023-08-06T08:27:16;3.17;;;1.70;;
60436;SDS011;46289;51.992;4.498;2023-08-06T08:29:23;5.55;;;2.50;;
60436;SDS011;46289;51.992;4.498;2023-08-06T08:31:31;3.75;;;2.15;;
60436;SDS011;46289;51.992;4.498;2023-08-06T08:33:41;6.20;;;2.30;;
60436;SDS011;46289;51.992;4.498;2023-08-06T08:35:48;6.18;;;2.65;;
60436;SDS011;46289;51.992;4.498;2023-08-06T08:37:54;4.90;;;2.45;;
60436;SDS011;46289;51.992;4.498;2023-08-06T08:39:59;4.90;;;1.95;;
60436;SDS011;46289;51.992;4.498;2023-08-06T08:42:05;5.43;;;2.60;;
60436;SDS011;46289;51.992;4.498;2023-08-06T08:44:11;4.07;;;1.85;;
60436;SDS011;46289;51.992;4.498;2023-08-06T08:46:23;4.18;;;1.95;;
60436;SDS011;46289;51.992;4.498;2023-08-06T08:48:35;3.10;;;1.58;;
60436;SDS011;46289;51.992;4.498;2023-08-06T08:50:42;5.07;;;2.05;;
60436;SDS011;46289;51.992;4.498;2023-08-06T08:52:48;6.18;;;2.25;;
60436;SDS011;46289;51.992;4.498;2023-08-06T08:54:55;6.50;;;2.15;;
60436;SDS011;46289;51.992;4.498;2023-08-06T08:57:00;7.95;;;2.05;;
60436;SDS011;46289;51.992;4.498;2023-08-06T08:59:06;4.03;;;1.73;;
60436;SDS011;46289;51.992;4.498;2023-08-06T09:01:11;5.57;;;1.90;;
60436;SDS011;46289;51.992;4.498;2023-08-06T09:03:19;4.57;;;1.90;;
60436;SDS011;46289;51.992;4.498;2023-08-06T09:05:28;3.03;;;1.80;;
60436;SDS011;46289;51.992;4.498;2023-08-06T09:07:34;5.55;;;2.50;;
60436;SDS011;46289;51.992;4.498;2023-08-06T09:09:43;3.17;;;1.70;;
60436;SDS011;46289;51.992;4.498;2023-08-06T09:11:51;4.30;;;2.20;;
60436;SDS011;46289;51.992;4.498;2023-08-06T09:13:57;4.88;;;2.40;;
60436;SDS011;46289;51.992;4.498;2023-08-06T09:16:04;3.95;;;2.10;;
60436;SDS011;46289;51.992;4.498;2023-08-06T09:18:10;4.70;;;2.10;;
60436;SDS011;46289;51.992;4.498;2023-08-06T09:20:19;3.83;;;2.05;;
60436;SDS011;46289;51.992;4.498;2023-08-06T09:22:24;5.35;;;1.83;;
60436;SDS011;46289;51.992;4.498;2023-08-06T09:24:38;3.45;;;1.65;;
60436;SDS011;46289;51.992;4.498;2023-08-06T09:26:44;5.00;;;1.90;;
60436;SDS011;46289;51.992;4.498;2023-08-06T09:28:49;3.33;;;2.00;;
60436;SDS011;46289;51.992;4.498;2023-08-06T09:30:57;2.72;;;1.33;;
60436;SDS011;46289;51.992;4.498;2023-08-06T09:33:06;4.40;;;1.92;;
60436;SDS011;46289;51.992;4.498;2023-08-06T09:35:20;3.72;;;1.88;;
60436;SDS011;46289;51.992;4.498;2023-08-06T09:37:27;3.67;;;1.80;;
60436;SDS011;46289;51.992;4.498;2023-08-06T09:39:40;2.53;;;1.40;;
60436;SDS011;46289;51.992;4.498;2023-08-06T09:41:46;2.92;;;1.42;;
60436;SDS011;46289;51.992;4.498;2023-08-06T09:43:53;3.80;;;1.80;;
60436;SDS011;46289;51.992;4.498;2023-08-06T09:45:58;5.47;;;2.08;;
60436;SDS011;46289;51.992;4.498;2023-08-06T09:48:04;2.83;;;1.88;;
60436;SDS011;46289;51.992;4.498;2023-08-06T09:50:14;4.80;;;1.92;;
60436;SDS011;46289;51.992;4.498;2023-08-06T09:52:22;4.88;;;2.08;;
60436;SDS011;46289;51.992;4.498;2023-08-06T09:54:30;3.15;;;1.73;;
60436;SDS011;46289;51.992;4.498;2023-08-06T09:56:39;3.58;;;1.75;;
60436;SDS011;46289;51.992;4.498;2023-08-06T09:58:45;2.58;;;1.55;;
60436;SDS011;46289;51.992;4.498;2023-08-06T10:00:51;8.52;;;1.98;;
60436;SDS011;46289;51.992;4.498;2023-08-06T10:02:59;2.72;;;1.55;;
60436;SDS011;46289;51.992;4.498;2023-08-06T10:05:05;3.20;;;1.85;;
60436;SDS011;46289;51.992;4.498;2023-08-06T10:07:12;3.95;;;1.42;;
60436;SDS011;46289;51.992;4.498;2023-08-06T10:09:21;3.95;;;1.77;;
60436;SDS011;46289;51.992;4.498;2023-08-06T10:11:23;3.88;;;1.60;;
60436;SDS011;46289;51.992;4.498;2023-08-06T10:13:33;5.15;;;1.95;;
60436;SDS011;46289;51.992;4.498;2023-08-06T10:15:39;5.38;;;1.80;;
60436;SDS011;46289;51.992;4.498;2023-08-06T10:17:45;3.15;;;1.80;;
60436;SDS011;46289;51.992;4.498;2023-08-06T10:19:55;3.00;;;2.13;;
60436;SDS011;46289;51.992;4.498;2023-08-06T10:22:09;6.45;;;1.65;;
60436;SDS011;46289;51.992;4.498;2023-08-06T10:24:15;3.08;;;1.83;;
60436;SDS011;46289;51.992;4.498;2023-08-06T10:26:27;2.53;;;1.40;;
60436;SDS011;46289;51.992;4.498;2023-08-06T10:28:33;3.45;;;1.48;;
60436;SDS011;46289;51.992;4.498;2023-08-06T10:30:46;2.80;;;1.77;;
60436;SDS011;46289;51.992;4.498;2023-08-06T10:32:55;3.95;;;1.58;;
60436;SDS011;46289;51.992;4.498;2023-08-06T10:35:02;3.47;;;1.40;;
60436;SDS011;46289;51.992;4.498;2023-08-06T10:37:10;4.22;;;1.77;;
60436;SDS011;46289;51.992;4.498;2023-08-06T10:39:13;3.03;;;1.55;;
60436;SDS011;46289;51.992;4.498;2023-08-06T10:41:34;4.15;;;1.63;;
60436;SDS011;46289;51.992;4.498;2023-08-06T10:43:39;3.17;;;1.65;;
60436;SDS011;46289;51.992;4.498;2023-08-06T10:45:49;3.15;;;1.70;;
60436;SDS011;46289;51.992;4.498;2023-08-06T10:47:55;2.17;;;1.73;;
60436;SDS011;46289;51.992;4.498;2023-08-06T10:50:00;4.03;;;1.70;;
60436;SDS011;46289;51.992;4.498;2023-08-06T10:52:06;5.40;;;1.85;;
60436;SDS011;46289;51.992;4.498;2023-08-06T10:54:11;6.00;;;1.90;;
60436;SDS011;46289;51.992;4.498;2023-08-06T10:56:16;4.35;;;1.90;;
60436;SDS011;46289;51.992;4.498;2023-08-06T10:58:26;3.00;;;1.50;;
60436;SDS011;46289;51.992;4.498;2023-08-06T11:00:36;3.08;;;1.80;;
60436;SDS011;46289;51.992;4.498;2023-08-06T11:02:41;3.55;;;1.80;;
60436;SDS011;46289;51.992;4.498;2023-08-06T11:04:47;1.92;;;1.20;;
60436;SDS011;46289;51.992;4.498;2023-08-06T11:06:51;3.33;;;1.60;;
60436;SDS011;46289;51.992;4.498;2023-08-06T11:08:59;4.45;;;1.67;;
60436;SDS011;46289;51.992;4.498;2023-08-06T11:11:09;5.55;;;1.63;;
60436;SDS011;46289;51.992;4.498;2023-08-06T11:13:16;2.78;;;1.60;;
60436;SDS011;46289;51.992;4.498;2023-08-06T11:15:24;2.92;;;1.50;;
60436;SDS011;46289;51.992;4.498;2023-08-06T11:17:30;4.93;;;1.55;;
60436;SDS011;46289;51.992;4.498;2023-08-06T11:19:36;2.40;;;1.50;;
60436;SDS011;46289;51.992;4.498;2023-08-06T11:21:42;4.15;;;1.77;;
60436;SDS011;46289;51.992;4.498;2023-08-06T11:23:49;3.85;;;1.80;;
60436;SDS011;46289;51.992;4.498;2023-08-06T11:25:55;3.85;;;1.50;;
60436;SDS011;46289;51.992;4.498;2023-08-06T11:28:01;4.05;;;1.48;;
60436;SDS011;46289;51.992;4.498;2023-08-06T11:30:07;3.65;;;1.50;;
60436;SDS011;46289;51.992;4.498;2023-08-06T11:32:18;3.78;;;1.40;;
60436;SDS011;46289;51.992;4.498;2023-08-06T11:34:20;2.55;;;1.58;;
60436;SDS011;46289;51.992;4.498;2023-08-06T11:36:29;3.17;;;1.65;;
60436;SDS011;46289;51.992;4.498;2023-08-06T11:38:36;4.05;;;1.38;;
60436;SDS011;46289;51.992;4.498;2023-08-06T11:40:41;3.35;;;1.52;;
60436;SDS011;46289;51.992;4.498;2023-08-06T11:42:50;2.65;;;1.52;;
60436;SDS011;46289;51.992;4.498;2023-08-06T11:44:56;2.97;;;1.50;;
60436;SDS011;46289;51.992;4.498;2023-08-06T11:47:02;3.33;;;1.52;;
60436;SDS011;46289;51.992;4.498;2023-08-06T11:49:13;1.67;;;1.30;;
60436;SDS011;46289;51.992;4.498;2023-08-06T11:51:15;3.28;;;1.67;;
60436;SDS011;46289;51.992;4.498;2023-08-06T11:53:26;1.23;;;1.10;;
60436;SDS011;46289;51.992;4.498;2023-08-06T11:55:44;2.15;;;1.33;;
60436;SDS011;46289;51.992;4.498;2023-08-06T11:57:54;1.50;;;1.30;;
60436;SDS011;46289;51.992;4.498;2023-08-06T12:00:01;1.52;;;1.20;;
60436;SDS011;46289;51.992;4.498;2023-08-06T12:02:07;2.67;;;1.20;;
60436;SDS011;46289;51.992;4.498;2023-08-06T12:04:17;1.95;;;1.50;;
60436;SDS011;46289;51.992;4.498;2023-08-06T12:06:22;3.88;;;1.48;;
60436;SDS011;46289;51.992;4.498;2023-08-06T12:08:31;7.00;;;4.03;;
60436;SDS011;46289;51.992;4.498;2023-08-06T12:10:36;2.50;;;1.23;;
60436;SDS011;46289;51.992;4.498;2023-08-06T12:13:03;3.65;;;1.48;;
60436;SDS011;46289;51.992;4.498;2023-08-06T12:17:33;1.52;;;1.42;;
60436;SDS011;46289;51.992;4.498;2023-08-06T12:19:39;1.88;;;1.30;;
60436;SDS011;46289;51.992;4.498;2023-08-06T12:21:44;1.95;;;1.30;;
60436;SDS011;46289;51.992;4.498;2023-08-06T12:23:50;4.07;;;1.75;;
60436;SDS011;46289;51.992;4.498;2023-08-06T12:25:55;1.35;;;1.23;;
60436;SDS011;46289;51.992;4.498;2023-08-06T12:28:03;3.13;;;1.30;;
60436;SDS011;46289;51.992;4.498;2023-08-06T12:30:12;3.53;;;0.88;;
60436;SDS011;46289;51.992;4.498;2023-08-06T12:35:01;3.50;;;1.00;;
60436;SDS011;46289;51.992;4.498;2023-08-06T12:37:14;1.42;;;1.33;;
60436;SDS011;46289;51.992;4.498;2023-08-06T12:39:24;2.63;;;1.30;;
60436;SDS011;46289;51.992;4.498;2023-08-06T12:41:34;1.30;;;0.93;;
60436;SDS011;46289;51.992;4.498;2023-08-06T12:43:47;2.53;;;1.25;;
60436;SDS011;46289;51.992;4.498;2023-08-06T12:45:54;2.75;;;1.30;;
60436;SDS011;46289;51.992;4.498;2023-08-06T12:47:59;1.10;;;1.02;;
60436;SDS011;46289;51.992;4.498;2023-08-06T12:50:14;3.53;;;1.52;;